createdAt,value
2022-11-20T00:00:16.208Z,96.40
2022-11-20T00:05:39.555Z,98.20
2022-11-20T00:10:42.940Z,98.30
2022-11-20T00:15:46.344Z,93.60
2022-11-20T00:20:49.711Z,97.10
2022-11-20T00:25:53.109Z,101.10
2022-11-20T00:30:56.581Z,105.20
2022-11-20T00:36:00.096Z,105.80
2022-11-20T00:41:03.530Z,104.90
2022-11-20T00:46:06.935Z,101.50
2022-11-20T00:51:10.307Z,103.30
2022-11-20T00:56:13.709Z,103.60
2022-11-20T01:01:17.259Z,105.30
2022-11-20T01:11:24.330Z,99.00
2022-11-20T01:16:27.785Z,100.80
2022-11-20T01:21:31.192Z,101.50
2022-11-20T01:26:34.630Z,100.90
2022-11-20T01:31:38.007Z,99.10
2022-11-20T01:36:41.403Z,99.90
2022-11-20T01:42:07.075Z,95.70
2022-11-20T01:47:13.039Z,92.20
2022-11-20T01:52:16.525Z,93.60
2022-11-20T01:57:19.922Z,96.00
2022-11-20T02:02:23.378Z,94.10
2022-11-20T02:07:26.839Z,95.20
2022-11-20T02:12:48.376Z,92.40
2022-11-20T02:17:55.871Z,91.30
2022-11-20T02:23:00.119Z,88.80
2022-11-20T02:28:03.543Z,88.40
2022-11-20T02:33:07.931Z,87.50
2022-11-20T02:38:11.336Z,92.30
2022-11-20T02:43:14.862Z,87.40
2022-11-20T02:48:18.373Z,87.20
2022-11-20T02:53:21.731Z,89.50
2022-11-20T02:58:25.132Z,85.90
2022-11-20T03:03:28.511Z,85.10
2022-11-20T03:08:32.045Z,90.10
2022-11-20T03:13:35.399Z,90.80
2022-11-20T03:18:38.819Z,85.80
2022-11-20T03:23:42.179Z,86.80
2022-11-20T03:28:45.592Z,84.90
2022-11-20T03:33:48.977Z,84.40
2022-11-20T03:38:52.401Z,84.60
2022-11-20T03:43:55.913Z,84.60
2022-11-20T03:48:59.291Z,79.30
2022-11-20T03:54:02.694Z,84.40
2022-11-20T03:59:06.141Z,86.80
2022-11-20T04:04:09.692Z,83.70
2022-11-20T04:09:13.070Z,84.80
2022-11-20T04:14:16.476Z,81.20
2022-11-20T04:19:20.033Z,80.10
2022-11-20T04:24:24.397Z,81.70
2022-11-20T04:29:27.821Z,78.20
2022-11-20T04:34:31.240Z,78.30
2022-11-20T04:39:34.660Z,79.20
2022-11-20T04:44:38.055Z,75.40
2022-11-20T04:49:41.479Z,73.40
2022-11-20T04:54:44.939Z,75.70
2022-11-20T04:59:48.346Z,78.60
2022-11-20T05:04:51.983Z,80.10
2022-11-20T05:09:55.437Z,74.40
2022-11-20T05:14:58.947Z,72.50
2022-11-20T05:20:02.510Z,75.50
2022-11-20T05:25:05.908Z,78.30
2022-11-20T05:30:09.353Z,70.20
2022-11-20T05:35:12.805Z,72.20
2022-11-20T05:40:16.214Z,70.10
2022-11-20T05:45:19.643Z,67.40
2022-11-20T05:50:23.061Z,68.90
2022-11-20T05:55:26.663Z,69.70
2022-11-20T06:00:30.094Z,65.20
2022-11-20T06:05:33.625Z,69.70
2022-11-20T06:10:37.165Z,66.40
2022-11-20T06:15:40.532Z,65.50
2022-11-20T06:20:43.939Z,67.40
2022-11-20T06:25:47.352Z,67.50
2022-11-20T06:30:50.767Z,61.40
2022-11-20T06:35:59.507Z,65.90
2022-11-20T06:41:03.782Z,63.10
2022-11-20T06:46:07.190Z,66.90
2022-11-20T06:51:10.593Z,68.50
2022-11-20T06:56:13.971Z,59.70
2022-11-20T07:01:17.710Z,65.80
2022-11-20T07:06:21.136Z,65.30
2022-11-20T07:11:24.498Z,69.40
2022-11-20T07:16:28.184Z,68.60
2022-11-20T07:21:31.588Z,69.10
2022-11-20T07:26:34.991Z,71.00
2022-11-20T07:31:38.621Z,74.00
2022-11-20T07:36:42.078Z,69.60
2022-11-20T07:41:45.492Z,73.50
2022-11-20T07:46:50.991Z,75.80
2022-11-20T07:51:56.702Z,71.30
2022-11-20T07:57:02.739Z,78.40
2022-11-20T08:02:06.150Z,77.00
2022-11-20T08:07:09.660Z,80.40
2022-11-20T08:12:30.813Z,76.40
2022-11-20T08:17:34.203Z,76.70
2022-11-20T08:22:37.599Z,76.30
2022-11-20T08:27:41.180Z,75.20
2022-11-20T08:32:44.742Z,79.80
2022-11-20T08:37:48.196Z,73.10
2022-11-20T08:42:51.671Z,73.00
2022-11-20T08:47:55.095Z,77.50
2022-11-20T08:52:58.462Z,76.00
2022-11-20T08:58:02.949Z,75.30
2022-11-20T09:03:06.309Z,77.40
2022-11-20T09:08:09.718Z,74.20
2022-11-20T09:13:13.214Z,77.90
2022-11-20T09:18:16.600Z,73.70
2022-11-20T09:23:20.055Z,72.80
2022-11-20T09:28:23.522Z,72.30
2022-11-20T09:33:26.932Z,72.00
2022-11-20T09:38:30.372Z,77.50
2022-11-20T09:43:35.701Z,70.40
2022-11-20T09:48:39.849Z,74.50
2022-11-20T09:53:43.261Z,72.70
2022-11-20T09:58:46.688Z,73.40
2022-11-20T10:03:50.104Z,67.10
2022-11-20T10:08:53.499Z,70.20
2022-11-20T10:13:56.883Z,72.50
2022-11-20T10:19:00.288Z,84.00
2022-11-20T10:24:03.696Z,88.80
2022-11-20T10:29:08.975Z,77.80
2022-11-20T10:34:13.124Z,86.20
2022-11-20T10:39:16.959Z,77.90
2022-11-20T10:44:43.671Z,84.20
2022-11-20T10:49:47.077Z,83.80
2022-11-20T10:54:50.484Z,87.00
2022-11-20T10:59:53.922Z,78.60
2022-11-20T11:04:57.340Z,80.40
2022-11-20T11:10:00.779Z,76.70
2022-11-20T11:15:04.188Z,77.40
2022-11-20T11:20:07.880Z,78.90
2022-11-20T11:25:11.278Z,77.80
2022-11-20T11:30:15.213Z,83.30
2022-11-20T11:40:24.304Z,74.90
2022-11-20T11:45:28.592Z,74.90
2022-11-20T11:50:32.061Z,75.60
2022-11-20T11:55:35.435Z,73.20
2022-11-20T12:00:38.804Z,70.10
2022-11-20T12:05:44.181Z,72.40
2022-11-20T12:10:50.354Z,67.80
2022-11-20T12:15:53.699Z,70.20
2022-11-20T12:20:57.065Z,70.80
2022-11-20T12:26:00.430Z,67.60
2022-11-20T12:31:03.890Z,68.90
2022-11-20T12:36:07.335Z,73.70
2022-11-20T12:41:10.729Z,71.20
2022-11-20T12:46:14.104Z,68.60
2022-11-20T12:51:17.504Z,71.10
2022-11-20T12:56:21.234Z,69.70
2022-11-20T13:01:38.670Z,65.70
2022-11-20T13:06:42.695Z,71.10
2022-11-20T13:16:49.568Z,67.20
2022-11-20T13:21:53.030Z,71.90
2022-11-20T13:26:56.456Z,62.70
2022-11-20T13:32:04.883Z,65.80
2022-11-20T13:37:11.064Z,64.30
2022-11-20T13:42:15.387Z,62.90
2022-11-20T13:47:18.830Z,61.10
2022-11-20T13:52:22.244Z,60.90
2022-11-20T13:57:25.668Z,61.90
2022-11-20T14:02:29.191Z,58.60
2022-11-20T14:07:32.673Z,60.10
2022-11-20T14:12:37.778Z,61.30
2022-11-20T14:17:41.158Z,55.70
2022-11-20T14:22:44.568Z,57.60
2022-11-20T14:27:48.007Z,54.00
2022-11-20T14:32:51.382Z,58.70
2022-11-20T14:37:54.812Z,53.10
2022-11-20T14:42:58.287Z,50.80
2022-11-20T14:48:01.679Z,56.80
2022-11-20T14:53:05.112Z,51.70
2022-11-20T14:58:08.492Z,52.50
2022-11-20T15:03:11.894Z,48.80
2022-11-20T15:08:15.286Z,53.30
2022-11-20T15:13:18.671Z,54.60
2022-11-20T15:18:22.077Z,50.10
2022-11-20T15:23:25.451Z,47.50
2022-11-20T15:28:28.835Z,50.20
2022-11-20T15:33:32.301Z,50.00
2022-11-20T15:38:35.735Z,44.90
2022-11-20T15:43:39.613Z,43.70
2022-11-20T15:48:47.667Z,48.00
2022-11-20T15:53:51.856Z,47.20
2022-11-20T15:58:55.296Z,49.60
2022-11-20T16:03:58.861Z,47.80
2022-11-20T16:09:04.919Z,46.30
2022-11-20T16:14:26.332Z,46.50
2022-11-20T16:19:29.945Z,45.50
2022-11-20T16:24:33.376Z,47.10
2022-11-20T16:29:36.786Z,47.50
2022-11-20T16:34:40.191Z,43.50
2022-11-20T16:39:43.693Z,43.90
2022-11-20T16:44:47.095Z,42.60
2022-11-20T16:49:50.489Z,47.90
2022-11-20T16:54:53.847Z,47.70
2022-11-20T17:00:01.893Z,45.90
2022-11-20T17:05:06.579Z,47.40
2022-11-20T17:10:10.124Z,48.10
2022-11-20T17:15:13.558Z,52.50
2022-11-20T17:20:17.013Z,53.60
2022-11-20T17:25:20.426Z,58.80
2022-11-20T17:30:23.828Z,59.00
2022-11-20T17:35:27.229Z,59.30
2022-11-20T17:40:30.654Z,54.20
2022-11-20T17:45:34.053Z,51.90
2022-11-20T17:50:37.462Z,57.20
2022-11-20T17:56:00.773Z,50.30
2022-11-20T18:01:04.290Z,51.60
2022-11-20T18:06:07.827Z,54.70
2022-11-20T18:11:11.300Z,52.80
2022-11-20T18:16:14.713Z,55.90
2022-11-20T18:21:18.100Z,55.40
2022-11-20T18:26:21.524Z,56.20
2022-11-20T18:31:24.924Z,60.10
2022-11-20T18:36:29.408Z,57.60
2022-11-20T18:41:50.757Z,55.00
2022-11-20T18:46:54.111Z,56.40
2022-11-20T18:51:57.490Z,56.80
2022-11-20T18:57:00.855Z,59.40
2022-11-20T19:02:04.303Z,59.20
2022-11-20T19:07:07.743Z,56.80
2022-11-20T19:12:11.127Z,61.40
2022-11-20T19:17:14.567Z,61.00
2022-11-20T19:22:17.947Z,58.90
2022-11-20T19:27:21.414Z,60.00
2022-11-20T19:32:25.344Z,59.80
2022-11-20T19:37:50.147Z,60.30
2022-11-20T19:48:44.868Z,58.00
2022-11-20T19:53:48.422Z,58.90
2022-11-20T19:58:51.833Z,59.80
2022-11-20T20:03:55.225Z,61.40
2022-11-20T20:08:59.162Z,63.40
2022-11-20T20:19:06.076Z,57.40
2022-11-20T20:24:09.566Z,63.50
2022-11-20T20:29:20.704Z,62.90
2022-11-20T20:40:15.358Z,60.40
2022-11-20T20:45:21.101Z,66.60
2022-11-20T20:50:24.510Z,61.10
2022-11-20T20:55:28.020Z,59.60
2022-11-20T21:00:31.505Z,54.80
2022-11-20T21:05:34.973Z,59.60
2022-11-20T21:10:38.411Z,74.40
2022-11-20T21:15:41.812Z,67.60
2022-11-20T21:21:03.224Z,68.90
2022-11-20T21:26:06.640Z,64.80
2022-11-20T21:31:10.088Z,68.00
2022-11-20T21:36:13.548Z,69.70
2022-11-20T21:41:16.920Z,71.60
2022-11-20T21:46:20.298Z,67.80
2022-11-20T21:51:23.712Z,67.80
2022-11-20T21:56:27.075Z,66.70
2022-11-20T22:01:30.608Z,68.30
2022-11-20T22:06:34.161Z,67.40
2022-11-20T22:11:37.547Z,64.50
2022-11-20T22:16:40.919Z,65.90
2022-11-20T22:21:44.419Z,62.10
2022-11-20T22:26:48.245Z,59.20
2022-11-20T22:31:51.603Z,61.00
2022-11-20T22:36:55.006Z,63.90
2022-11-20T22:42:10.537Z,60.70
2022-11-20T22:47:32.257Z,57.00
2022-11-20T22:52:35.775Z,65.60
2022-11-20T22:57:39.168Z,62.60
2022-11-20T23:02:42.563Z,61.50
2022-11-20T23:07:46.059Z,66.40
2022-11-20T23:12:49.464Z,72.00
2022-11-20T23:17:52.875Z,69.30
2022-11-20T23:22:56.253Z,66.30
2022-11-20T23:27:59.952Z,69.50
2022-11-20T23:38:07.792Z,69.60
2022-11-20T23:43:17.083Z,69.00
2022-11-20T23:48:20.455Z,68.90
2022-11-20T23:53:23.833Z,73.30
2022-11-20T23:58:27.269Z,70.50
